sensor_id;sensor_type;location;lat;lon;timestamp;P1;durP1;ratioP1;P2;durP2;ratioP2
75990;SDS011;64673;52.276;10.560;2023-05-29T00:00:11;5.00;;;2.17;;
75990;SDS011;64673;52.276;10.560;2023-05-29T00:02:38;5.40;;;2.35;;
75990;SDS011;64673;52.276;10.560;2023-05-29T00:05:05;4.13;;;2.10;;
75990;SDS011;64673;52.276;10.560;2023-05-29T00:07:30;4.93;;;1.98;;
75990;SDS011;64673;52.276;10.560;2023-05-29T00:09:57;4.25;;;1.70;;
75990;SDS011;64673;52.276;10.560;2023-05-29T00:12:23;5.28;;;2.33;;
75990;SDS011;64673;52.276;10.560;2023-05-29T00:14:48;7.00;;;2.50;;
75990;SDS011;64673;52.276;10.560;2023-05-29T00:17:14;5.38;;;2.03;;
75990;SDS011;64673;52.276;10.560;2023-05-29T00:19:40;6.35;;;2.22;;
75990;SDS011;64673;52.276;10.560;2023-05-29T00:24:32;4.60;;;2.00;;
75990;SDS011;64673;52.276;10.560;2023-05-29T00:26:58;7.70;;;2.55;;
75990;SDS011;64673;52.276;10.560;2023-05-29T00:29:23;6.07;;;2.25;;
75990;SDS011;64673;52.276;10.560;2023-05-29T00:31:48;4.38;;;2.50;;
75990;SDS011;64673;52.276;10.560;2023-05-29T00:34:14;5.38;;;2.40;;
75990;SDS011;64673;52.276;10.560;2023-05-29T00:36:40;4.00;;;2.25;;
75990;SDS011;64673;52.276;10.560;2023-05-29T00:39:05;6.50;;;2.60;;
75990;SDS011;64673;52.276;10.560;2023-05-29T00:41:30;7.50;;;2.50;;
75990;SDS011;64673;52.276;10.560;2023-05-29T00:43:56;5.68;;;2.67;;
75990;SDS011;64673;52.276;10.560;2023-05-29T00:46:21;4.25;;;2.38;;
75990;SDS011;64673;52.276;10.560;2023-05-29T00:48:46;5.20;;;2.30;;
75990;SDS011;64673;52.276;10.560;2023-05-29T00:51:12;4.68;;;2.55;;
75990;SDS011;64673;52.276;10.560;2023-05-29T00:53:40;4.07;;;2.47;;
75990;SDS011;64673;52.276;10.560;2023-05-29T00:56:07;6.22;;;2.63;;
75990;SDS011;64673;52.276;10.560;2023-05-29T00:58:33;5.88;;;2.88;;
75990;SDS011;64673;52.276;10.560;2023-05-29T01:00:59;5.07;;;2.63;;
75990;SDS011;64673;52.276;10.560;2023-05-29T01:03:25;5.68;;;2.88;;
75990;SDS011;64673;52.276;10.560;2023-05-29T01:05:51;5.75;;;2.92;;
75990;SDS011;64673;52.276;10.560;2023-05-29T01:08:17;5.85;;;2.70;;
75990;SDS011;64673;52.276;10.560;2023-05-29T01:10:42;4.22;;;2.20;;
75990;SDS011;64673;52.276;10.560;2023-05-29T01:13:09;6.03;;;2.42;;
75990;SDS011;64673;52.276;10.560;2023-05-29T01:15:52;7.38;;;2.47;;
75990;SDS011;64673;52.276;10.560;2023-05-29T01:18:23;5.22;;;2.50;;
75990;SDS011;64673;52.276;10.560;2023-05-29T01:28:44;4.57;;;2.70;;
75990;SDS011;64673;52.276;10.560;2023-05-29T01:31:12;7.88;;;2.78;;
75990;SDS011;64673;52.276;10.560;2023-05-29T01:33:39;5.75;;;2.72;;
75990;SDS011;64673;52.276;10.560;2023-05-29T01:36:07;4.88;;;2.47;;
75990;SDS011;64673;52.276;10.560;2023-05-29T01:40:58;6.03;;;2.60;;
75990;SDS011;64673;52.276;10.560;2023-05-29T01:43:24;5.70;;;2.25;;
75990;SDS011;64673;52.276;10.560;2023-05-29T01:45:50;5.65;;;2.60;;
75990;SDS011;64673;52.276;10.560;2023-05-29T01:48:15;6.45;;;2.65;;
75990;SDS011;64673;52.276;10.560;2023-05-29T01:50:41;7.45;;;2.92;;
75990;SDS011;64673;52.276;10.560;2023-05-29T01:53:08;6.45;;;2.33;;
75990;SDS011;64673;52.276;10.560;2023-05-29T01:55:34;6.30;;;2.42;;
75990;SDS011;64673;52.276;10.560;2023-05-29T01:58:00;5.55;;;2.50;;
75990;SDS011;64673;52.276;10.560;2023-05-29T02:00:26;6.95;;;2.70;;
75990;SDS011;64673;52.276;10.560;2023-05-29T02:02:52;6.13;;;2.78;;
75990;SDS011;64673;52.276;10.560;2023-05-29T02:05:17;6.35;;;2.42;;
75990;SDS011;64673;52.276;10.560;2023-05-29T02:07:42;5.78;;;3.10;;
75990;SDS011;64673;52.276;10.560;2023-05-29T02:10:08;5.30;;;2.50;;
75990;SDS011;64673;52.276;10.560;2023-05-29T02:12:33;5.05;;;2.53;;
75990;SDS011;64673;52.276;10.560;2023-05-29T02:14:59;7.07;;;2.40;;
75990;SDS011;64673;52.276;10.560;2023-05-29T02:17:24;7.32;;;2.30;;
75990;SDS011;64673;52.276;10.560;2023-05-29T02:19:50;5.40;;;2.70;;
75990;SDS011;64673;52.276;10.560;2023-05-29T02:22:17;4.43;;;2.40;;
75990;SDS011;64673;52.276;10.560;2023-05-29T02:24:43;4.97;;;2.42;;
75990;SDS011;64673;52.276;10.560;2023-05-29T02:27:08;6.47;;;2.80;;
75990;SDS011;64673;52.276;10.560;2023-05-29T02:29:34;9.82;;;3.08;;
75990;SDS011;64673;52.276;10.560;2023-05-29T02:31:59;6.50;;;2.67;;
75990;SDS011;64673;52.276;10.560;2023-05-29T02:34:25;6.60;;;2.30;;
75990;SDS011;64673;52.276;10.560;2023-05-29T02:36:50;5.20;;;2.25;;
75990;SDS011;64673;52.276;10.560;2023-05-29T02:39:19;5.10;;;1.90;;
75990;SDS011;64673;52.276;10.560;2023-05-29T02:41:45;6.47;;;2.00;;
75990;SDS011;64673;52.276;10.560;2023-05-29T02:44:11;3.85;;;2.25;;
75990;SDS011;64673;52.276;10.560;2023-05-29T02:46:36;6.35;;;2.30;;
75990;SDS011;64673;52.276;10.560;2023-05-29T02:49:01;4.93;;;2.00;;
75990;SDS011;64673;52.276;10.560;2023-05-29T02:51:27;5.28;;;2.17;;
75990;SDS011;64673;52.276;10.560;2023-05-29T02:53:52;4.50;;;2.45;;
75990;SDS011;64673;52.276;10.560;2023-05-29T02:56:18;5.07;;;1.95;;
75990;SDS011;64673;52.276;10.560;2023-05-29T02:58:43;5.65;;;2.30;;
75990;SDS011;64673;52.276;10.560;2023-05-29T03:01:10;3.03;;;1.63;;
75990;SDS011;64673;52.276;10.560;2023-05-29T03:03:35;5.53;;;1.90;;
75990;SDS011;64673;52.276;10.560;2023-05-29T03:06:01;7.22;;;2.58;;
75990;SDS011;64673;52.276;10.560;2023-05-29T03:08:27;5.28;;;2.35;;
75990;SDS011;64673;52.276;10.560;2023-05-29T03:10:53;4.45;;;2.28;;
75990;SDS011;64673;52.276;10.560;2023-05-29T03:13:19;4.43;;;2.40;;
75990;SDS011;64673;52.276;10.560;2023-05-29T03:15:44;4.57;;;2.30;;
75990;SDS011;64673;52.276;10.560;2023-05-29T03:18:10;5.68;;;1.92;;
75990;SDS011;64673;52.276;10.560;2023-05-29T03:20:35;4.53;;;1.90;;
75990;SDS011;64673;52.276;10.560;2023-05-29T03:23:01;5.93;;;2.30;;
75990;SDS011;64673;52.276;10.560;2023-05-29T03:25:27;4.53;;;2.03;;
75990;SDS011;64673;52.276;10.560;2023-05-29T03:27:52;3.67;;;1.85;;
75990;SDS011;64673;52.276;10.560;2023-05-29T03:30:17;5.72;;;2.78;;
75990;SDS011;64673;52.276;10.560;2023-05-29T03:32:44;3.90;;;1.90;;
75990;SDS011;64673;52.276;10.560;2023-05-29T03:35:10;3.50;;;1.77;;
75990;SDS011;64673;52.276;10.560;2023-05-29T03:37:35;5.45;;;2.00;;
75990;SDS011;64673;52.276;10.560;2023-05-29T03:40:00;4.18;;;1.95;;
75990;SDS011;64673;52.276;10.560;2023-05-29T03:42:26;5.32;;;1.90;;
75990;SDS011;64673;52.276;10.560;2023-05-29T03:44:51;4.18;;;2.20;;
75990;SDS011;64673;52.276;10.560;2023-05-29T03:47:16;4.90;;;1.80;;
75990;SDS011;64673;52.276;10.560;2023-05-29T03:49:43;5.40;;;2.00;;
75990;SDS011;64673;52.276;10.560;2023-05-29T03:52:08;4.30;;;2.10;;
75990;SDS011;64673;52.276;10.560;2023-05-29T03:54:34;5.72;;;1.77;;
75990;SDS011;64673;52.276;10.560;2023-05-29T03:56:59;4.72;;;1.98;;
75990;SDS011;64673;52.276;10.560;2023-05-29T03:59:24;3.85;;;1.77;;
75990;SDS011;64673;52.276;10.560;2023-05-29T04:01:50;5.50;;;1.60;;
75990;SDS011;64673;52.276;10.560;2023-05-29T04:04:15;4.32;;;1.77;;
75990;SDS011;64673;52.276;10.560;2023-05-29T04:06:41;4.47;;;1.65;;
75990;SDS011;64673;52.276;10.560;2023-05-29T04:09:06;4.72;;;2.35;;
75990;SDS011;64673;52.276;10.560;2023-05-29T04:13:59;4.80;;;1.75;;
75990;SDS011;64673;52.276;10.560;2023-05-29T04:16:25;5.10;;;1.83;;
75990;SDS011;64673;52.276;10.560;2023-05-29T04:18:52;5.20;;;1.90;;
75990;SDS011;64673;52.276;10.560;2023-05-29T04:21:17;3.95;;;1.70;;
75990;SDS011;64673;52.276;10.560;2023-05-29T04:23:43;6.00;;;1.63;;
75990;SDS011;64673;52.276;10.560;2023-05-29T04:26:08;6.72;;;1.63;;
75990;SDS011;64673;52.276;10.560;2023-05-29T04:28:34;7.75;;;1.85;;
75990;SDS011;64673;52.276;10.560;2023-05-29T04:31:02;3.88;;;1.52;;
75990;SDS011;64673;52.276;10.560;2023-05-29T04:33:27;5.60;;;1.58;;
75990;SDS011;64673;52.276;10.560;2023-05-29T04:35:54;4.93;;;1.95;;
75990;SDS011;64673;52.276;10.560;2023-05-29T04:38:19;4.72;;;1.60;;
75990;SDS011;64673;52.276;10.560;2023-05-29T04:40:49;4.00;;;1.70;;
75990;SDS011;64673;52.276;10.560;2023-05-29T04:43:15;4.60;;;1.92;;
75990;SDS011;64673;52.276;10.560;2023-05-29T04:45:41;3.67;;;1.50;;
75990;SDS011;64673;52.276;10.560;2023-05-29T04:48:07;4.25;;;1.70;;
75990;SDS011;64673;52.276;10.560;2023-05-29T04:50:33;5.90;;;2.20;;
75990;SDS011;64673;52.276;10.560;2023-05-29T04:52:59;3.45;;;1.80;;
75990;SDS011;64673;52.276;10.560;2023-05-29T04:55:25;6.00;;;2.10;;
75990;SDS011;64673;52.276;10.560;2023-05-29T04:57:50;4.68;;;2.15;;
75990;SDS011;64673;52.276;10.560;2023-05-29T05:00:16;3.92;;;1.77;;
75990;SDS011;64673;52.276;10.560;2023-05-29T05:02:43;3.97;;;1.83;;
75990;SDS011;64673;52.276;10.560;2023-05-29T05:05:09;5.03;;;1.67;;
75990;SDS011;64673;52.276;10.560;2023-05-29T05:07:34;4.63;;;1.70;;
75990;SDS011;64673;52.276;10.560;2023-05-29T05:10:00;4.78;;;1.75;;
75990;SDS011;64673;52.276;10.560;2023-05-29T05:12:26;3.67;;;1.75;;
75990;SDS011;64673;52.276;10.560;2023-05-29T05:14:51;4.93;;;1.80;;
75990;SDS011;64673;52.276;10.560;2023-05-29T05:17:16;4.07;;;1.88;;
75990;SDS011;64673;52.276;10.560;2023-05-29T05:19:42;2.95;;;1.55;;
75990;SDS011;64673;52.276;10.560;2023-05-29T05:22:07;6.82;;;1.83;;
75990;SDS011;64673;52.276;10.560;2023-05-29T05:24:33;6.05;;;1.60;;
75990;SDS011;64673;52.276;10.560;2023-05-29T05:26:59;5.25;;;1.70;;
75990;SDS011;64673;52.276;10.560;2023-05-29T05:29:25;7.40;;;1.92;;
75990;SDS011;64673;52.276;10.560;2023-05-29T05:31:50;5.03;;;1.70;;
75990;SDS011;64673;52.276;10.560;2023-05-29T05:34:16;3.35;;;1.52;;
75990;SDS011;64673;52.276;10.560;2023-05-29T05:36:41;5.07;;;1.75;;
75990;SDS011;64673;52.276;10.560;2023-05-29T05:39:06;5.75;;;1.85;;
75990;SDS011;64673;52.276;10.560;2023-05-29T05:41:32;4.13;;;1.40;;
75990;SDS011;64673;52.276;10.560;2023-05-29T05:43:57;5.78;;;1.67;;
75990;SDS011;64673;52.276;10.560;2023-05-29T05:46:22;7.93;;;2.30;;
75990;SDS011;64673;52.276;10.560;2023-05-29T05:48:48;4.35;;;1.60;;
75990;SDS011;64673;52.276;10.560;2023-05-29T05:51:13;4.30;;;1.73;;
75990;SDS011;64673;52.276;10.560;2023-05-29T05:53:39;4.38;;;1.45;;
75990;SDS011;64673;52.276;10.560;2023-05-29T05:56:04;5.40;;;1.75;;
75990;SDS011;64673;52.276;10.560;2023-05-29T05:58:30;10.30;;;1.75;;
75990;SDS011;64673;52.276;10.560;2023-05-29T06:00:55;6.82;;;1.95;;
75990;SDS011;64673;52.276;10.560;2023-05-29T06:03:22;7.03;;;1.80;;
75990;SDS011;64673;52.276;10.560;2023-05-29T06:05:47;4.90;;;1.55;;
75990;SDS011;64673;52.276;10.560;2023-05-29T06:08:13;8.85;;;1.65;;
75990;SDS011;64673;52.276;10.560;2023-05-29T06:10:38;10.35;;;1.70;;
75990;SDS011;64673;52.276;10.560;2023-05-29T06:13:04;9.45;;;1.75;;
75990;SDS011;64673;52.276;10.560;2023-05-29T06:15:29;6.47;;;1.60;;
75990;SDS011;64673;52.276;10.560;2023-05-29T06:17:54;4.63;;;1.30;;
75990;SDS011;64673;52.276;10.560;2023-05-29T06:20:20;5.65;;;1.50;;
75990;SDS011;64673;52.276;10.560;2023-05-29T06:22:46;5.50;;;1.55;;
75990;SDS011;64673;52.276;10.560;2023-05-29T06:25:15;6.88;;;1.80;;
75990;SDS011;64673;52.276;10.560;2023-05-29T06:27:44;7.53;;;1.50;;
75990;SDS011;64673;52.276;10.560;2023-05-29T06:30:10;4.88;;;1.45;;
75990;SDS011;64673;52.276;10.560;2023-05-29T06:32:36;9.25;;;2.10;;
75990;SDS011;64673;52.276;10.560;2023-05-29T06:35:01;7.55;;;1.88;;
75990;SDS011;64673;52.276;10.560;2023-05-29T06:37:27;7.95;;;1.77;;
75990;SDS011;64673;52.276;10.560;2023-05-29T06:39:52;7.60;;;1.80;;
75990;SDS011;64673;52.276;10.560;2023-05-29T06:42:17;6.90;;;1.98;;
75990;SDS011;64673;52.276;10.560;2023-05-29T06:44:43;5.43;;;1.73;;
75990;SDS011;64673;52.276;10.560;2023-05-29T06:47:08;8.07;;;1.58;;
75990;SDS011;64673;52.276;10.560;2023-05-29T06:49:33;5.43;;;1.83;;
75990;SDS011;64673;52.276;10.560;2023-05-29T06:51:59;8.65;;;1.63;;
75990;SDS011;64673;52.276;10.560;2023-05-29T06:54:25;5.70;;;1.60;;
75990;SDS011;64673;52.276;10.560;2023-05-29T06:56:50;4.95;;;1.90;;
75990;SDS011;64673;52.276;10.560;2023-05-29T06:59:15;7.28;;;2.30;;
75990;SDS011;64673;52.276;10.560;2023-05-29T07:01:41;5.93;;;1.63;;
75990;SDS011;64673;52.276;10.560;2023-05-29T07:04:06;5.57;;;1.70;;
75990;SDS011;64673;52.276;10.560;2023-05-29T07:06:32;3.95;;;1.52;;
75990;SDS011;64673;52.276;10.560;2023-05-29T07:08:58;3.13;;;1.45;;
75990;SDS011;64673;52.276;10.560;2023-05-29T07:11:24;5.80;;;1.40;;
75990;SDS011;64673;52.276;10.560;2023-05-29T07:13:51;6.53;;;1.73;;
75990;SDS011;64673;52.276;10.560;2023-05-29T07:16:18;7.15;;;1.35;;
75990;SDS011;64673;52.276;10.560;2023-05-29T07:18:43;4.85;;;1.67;;
75990;SDS011;64673;52.276;10.560;2023-05-29T07:21:09;4.13;;;1.40;;
75990;SDS011;64673;52.276;10.560;2023-05-29T07:23:35;5.68;;;1.40;;
75990;SDS011;64673;52.276;10.560;2023-05-29T07:26:00;6.03;;;1.55;;
75990;SDS011;64673;52.276;10.560;2023-05-29T07:28:25;9.20;;;1.60;;
75990;SDS011;64673;52.276;10.560;2023-05-29T07:30:51;8.38;;;2.15;;
75990;SDS011;64673;52.276;10.560;2023-05-29T07:33:16;8.77;;;1.42;;
75990;SDS011;64673;52.276;10.560;2023-05-29T07:35:41;5.00;;;1.25;;
75990;SDS011;64673;52.276;10.560;2023-05-29T07:38:07;7.90;;;1.50;;
75990;SDS011;64673;52.276;10.560;2023-05-29T07:40:32;7.15;;;1.80;;
75990;SDS011;64673;52.276;10.560;2023-05-29T07:42:58;8.68;;;1.90;;
75990;SDS011;64673;52.276;10.560;2023-05-29T07:45:23;3.08;;;1.00;;
75990;SDS011;64673;52.276;10.560;2023-05-29T07:47:48;9.50;;;1.63;;
75990;SDS011;64673;52.276;10.560;2023-05-29T07:50:14;7.20;;;1.33;;
75990;SDS011;64673;52.276;10.560;2023-05-29T07:52:41;8.45;;;1.50;;
75990;SDS011;64673;52.276;10.560;2023-05-29T07:57:32;4.30;;;1.53;;
75990;SDS011;64673;52.276;10.560;2023-05-29T07:59:58;5.60;;;1.35;;
75990;SDS011;64673;52.276;10.560;2023-05-29T08:02:23;4.63;;;1.40;;
75990;SDS011;64673;52.276;10.560;2023-05-29T08:04:49;7.05;;;1.40;;
75990;SDS011;64673;52.276;10.560;2023-05-29T08:07:14;6.57;;;1.30;;
75990;SDS011;64673;52.276;10.560;2023-05-29T08:09:40;6.97;;;1.20;;
75990;SDS011;64673;52.276;10.560;2023-05-29T08:12:05;5.88;;;1.25;;
75990;SDS011;64673;52.276;10.560;2023-05-29T08:14:31;7.07;;;2.08;;
75990;SDS011;64673;52.276;10.560;2023-05-29T08:16:56;5.53;;;1.48;;
75990;SDS011;64673;52.276;10.560;2023-05-29T08:19:22;5.88;;;1.15;;
75990;SDS011;64673;52.276;10.560;2023-05-29T08:21:48;10.57;;;1.30;;
75990;SDS011;64673;52.276;10.560;2023-05-29T08:24:13;4.15;;;1.08;;
75990;SDS011;64673;52.276;10.560;2023-05-29T08:26:39;5.32;;;1.30;;
75990;SDS011;64673;52.276;10.560;2023-05-29T08:29:04;4.80;;;1.35;;
75990;SDS011;64673;52.276;10.560;2023-05-29T08:31:33;5.40;;;1.30;;
75990;SDS011;64673;52.276;10.560;2023-05-29T08:33:59;5.15;;;1.48;;
75990;SDS011;64673;52.276;10.560;2023-05-29T08:36:24;7.90;;;1.30;;
75990;SDS011;64673;52.276;10.560;2023-05-29T08:38:50;9.35;;;1.48;;
75990;SDS011;64673;52.276;10.560;2023-05-29T08:41:25;5.18;;;1.30;;
75990;SDS011;64673;52.276;10.560;2023-05-29T08:43:56;8.05;;;1.55;;
75990;SDS011;64673;52.276;10.560;2023-05-29T08:46:24;10.52;;;1.88;;
75990;SDS011;64673;52.276;10.560;2023-05-29T08:51:19;6.35;;;1.10;;
75990;SDS011;64673;52.276;10.560;2023-05-29T08:53:46;6.85;;;1.17;;
75990;SDS011;64673;52.276;10.560;2023-05-29T08:56:12;9.98;;;1.73;;
75990;SDS011;64673;52.276;10.560;2023-05-29T08:58:37;6.68;;;1.42;;
75990;SDS011;64673;52.276;10.560;2023-05-29T09:01:03;4.25;;;1.20;;
75990;SDS011;64673;52.276;10.560;2023-05-29T09:03:29;5.63;;;1.45;;
75990;SDS011;64673;52.276;10.560;2023-05-29T09:05:57;5.22;;;1.23;;
75990;SDS011;64673;52.276;10.560;2023-05-29T09:08:24;7.60;;;1.80;;
75990;SDS011;64673;52.276;10.560;2023-05-29T09:10:51;7.70;;;1.67;;
75990;SDS011;64673;52.276;10.560;2023-05-29T09:13:17;5.10;;;1.27;;
75990;SDS011;64673;52.276;10.560;2023-05-29T09:15:42;4.82;;;1.17;;
75990;SDS011;64673;52.276;10.560;2023-05-29T09:18:08;5.63;;;1.05;;
75990;SDS011;64673;52.276;10.560;2023-05-29T09:20:34;7.40;;;1.52;;
75990;SDS011;64673;52.276;10.560;2023-05-29T09:25:27;3.95;;;1.42;;
75990;SDS011;64673;52.276;10.560;2023-05-29T09:27:55;4.05;;;1.13;;
75990;SDS011;64673;52.276;10.560;2023-05-29T09:33:12;3.38;;;1.33;;
75990;SDS011;64673;52.276;10.560;2023-05-29T09:35:42;8.10;;;1.40;;
75990;SDS011;64673;52.276;10.560;2023-05-29T09:38:15;4.68;;;1.58;;
75990;SDS011;64673;52.276;10.560;2023-05-29T09:40:42;6.07;;;1.40;;
75990;SDS011;64673;52.276;10.560;2023-05-29T09:45:37;6.82;;;1.83;;
75990;SDS011;64673;52.276;10.560;2023-05-29T09:50:30;3.58;;;1.48;;
75990;SDS011;64673;52.276;10.560;2023-05-29T09:52:56;5.50;;;1.10;;
75990;SDS011;64673;52.276;10.560;2023-05-29T09:55:23;2.92;;;1.15;;
75990;SDS011;64673;52.276;10.560;2023-05-29T09:57:51;4.35;;;1.50;;
75990;SDS011;64673;52.276;10.560;2023-05-29T10:00:18;4.00;;;1.23;;
75990;SDS011;64673;52.276;10.560;2023-05-29T10:02:44;4.80;;;1.15;;
75990;SDS011;64673;52.276;10.560;2023-05-29T10:05:10;7.25;;;2.25;;
75990;SDS011;64673;52.276;10.560;2023-05-29T10:07:37;4.35;;;1.60;;
75990;SDS011;64673;52.276;10.560;2023-05-29T10:10:05;4.00;;;1.35;;
75990;SDS011;64673;52.276;10.560;2023-05-29T10:12:34;4.88;;;1.30;;
75990;SDS011;64673;52.276;10.560;2023-05-29T10:15:06;3.70;;;1.10;;
75990;SDS011;64673;52.276;10.560;2023-05-29T10:17:36;4.15;;;0.85;;
75990;SDS011;64673;52.276;10.560;2023-05-29T10:20:05;6.93;;;1.35;;
75990;SDS011;64673;52.276;10.560;2023-05-29T10:22:34;4.88;;;1.35;;
75990;SDS011;64673;52.276;10.560;2023-05-29T10:25:05;4.82;;;1.25;;
75990;SDS011;64673;52.276;10.560;2023-05-29T10:27:33;3.30;;;1.30;;
75990;SDS011;64673;52.276;10.560;2023-05-29T10:29:59;3.50;;;1.08;;
75990;SDS011;64673;52.276;10.560;2023-05-29T10:32:41;3.63;;;1.30;;
75990;SDS011;64673;52.276;10.560;2023-05-29T10:35:22;6.63;;;1.40;;
75990;SDS011;64673;52.276;10.560;2023-05-29T10:37:57;4.78;;;1.30;;
75990;SDS011;64673;52.276;10.560;2023-05-29T10:40:34;5.60;;;1.23;;
75990;SDS011;64673;52.276;10.560;2023-05-29T10:42:59;5.15;;;1.40;;
75990;SDS011;64673;52.276;10.560;2023-05-29T10:53:14;4.35;;;1.50;;
75990;SDS011;64673;52.276;10.560;2023-05-29T10:55:41;3.63;;;1.27;;
75990;SDS011;64673;52.276;10.560;2023-05-29T10:58:07;5.72;;;1.20;;
75990;SDS011;64673;52.276;10.560;2023-05-29T11:03:06;5.78;;;1.42;;
75990;SDS011;64673;52.276;10.560;2023-05-29T11:05:32;5.45;;;1.20;;
75990;SDS011;64673;52.276;10.560;2023-05-29T11:07:58;4.63;;;1.40;;
75990;SDS011;64673;52.276;10.560;2023-05-29T11:13:24;5.90;;;1.27;;
75990;SDS011;64673;52.276;10.560;2023-05-29T11:18:55;4.88;;;1.58;;
75990;SDS011;64673;52.276;10.560;2023-05-29T11:23:53;6.28;;;1.50;;
75990;SDS011;64673;52.276;10.560;2023-05-29T11:26:19;4.82;;;1.20;;
75990;SDS011;64673;52.276;10.560;2023-05-29T11:28:49;4.25;;;1.70;;
75990;SDS011;64673;52.276;10.560;2023-05-29T11:31:15;6.05;;;1.50;;
75990;SDS011;64673;52.276;10.560;2023-05-29T11:33:43;4.35;;;1.30;;
75990;SDS011;64673;52.276;10.560;2023-05-29T11:36:21;3.33;;;1.20;;
75990;SDS011;64673;52.276;10.560;2023-05-29T11:38:47;5.20;;;1.67;;
75990;SDS011;64673;52.276;10.560;2023-05-29T11:41:12;3.38;;;1.30;;
75990;SDS011;64673;52.276;10.560;2023-05-29T11:43:38;7.18;;;1.63;;
75990;SDS011;64673;52.276;10.560;2023-05-29T11:46:37;4.38;;;1.33;;
75990;SDS011;64673;52.276;10.560;2023-05-29T11:48:57;4.35;;;1.38;;
75990;SDS011;64673;52.276;10.560;2023-05-29T11:51:23;4.63;;;1.55;;
75990;SDS011;64673;52.276;10.560;2023-05-29T11:53:49;5.57;;;1.67;;
75990;SDS011;64673;52.276;10.560;2023-05-29T11:56:18;5.95;;;1.60;;
75990;SDS011;64673;52.276;10.560;2023-05-29T11:58:44;7.78;;;1.65;;
75990;SDS011;64673;52.276;10.560;2023-05-29T12:01:10;5.18;;;1.73;;
75990;SDS011;64673;52.276;10.560;2023-05-29T12:03:42;6.07;;;1.38;;
75990;SDS011;64673;52.276;10.560;2023-05-29T12:06:08;4.38;;;1.58;;
75990;SDS011;64673;52.276;10.560;2023-05-29T12:08:35;4.57;;;1.70;;
75990;SDS011;64673;52.276;10.560;2023-05-29T12:11:01;4.78;;;1.60;;
75990;SDS011;64673;52.276;10.560;2023-05-29T12:13:26;5.03;;;1.40;;
75990;SDS011;64673;52.276;10.560;2023-05-29T12:15:54;6.13;;;1.65;;
75990;SDS011;64673;52.276;10.560;2023-05-29T12:18:25;3.80;;;1.27;;
75990;SDS011;64673;52.276;10.560;2023-05-29T12:20:51;9.77;;;1.50;;
75990;SDS011;64673;52.276;10.560;2023-05-29T12:23:22;2.72;;;1.40;;
75990;SDS011;64673;52.276;10.560;2023-05-29T12:25:50;5.35;;;1.40;;
75990;SDS011;64673;52.276;10.560;2023-05-29T12:28:17;5.22;;;1.45;;
75990;SDS011;64673;52.276;10.560;2023-05-29T12:30:44;4.53;;;1.60;;
75990;SDS011;64673;52.276;10.560;2023-05-29T12:33:30;5.82;;;1.70;;
75990;SDS011;64673;52.276;10.560;2023-05-29T12:36:07;4.38;;;1.70;;
75990;SDS011;64673;52.276;10.560;2023-05-29T12:38:46;4.32;;;2.00;;
75990;SDS011;64673;52.276;10.560;2023-05-29T12:43:58;5.55;;;1.80;;
75990;SDS011;64673;52.276;10.560;2023-05-29T12:46:26;2.58;;;1.10;;
75990;SDS011;64673;52.276;10.560;2023-05-29T12:48:53;3.65;;;1.30;;
75990;SDS011;64673;52.276;10.560;2023-05-29T12:51:23;3.88;;;1.25;;
75990;SDS011;64673;52.276;10.560;2023-05-29T12:53:52;2.75;;;1.30;;
75990;SDS011;64673;52.276;10.560;2023-05-29T12:56:20;6.13;;;1.20;;
75990;SDS011;64673;52.276;10.560;2023-05-29T12:58:47;5.63;;;1.70;;
75990;SDS011;64673;52.276;10.560;2023-05-29T13:01:13;2.40;;;1.50;;
75990;SDS011;64673;52.276;10.560;2023-05-29T13:03:41;3.65;;;1.35;;
75990;SDS011;64673;52.276;10.560;2023-05-29T13:06:06;3.92;;;1.60;;
75990;SDS011;64673;52.276;10.560;2023-05-29T13:08:32;4.28;;;1.45;;
75990;SDS011;64673;52.276;10.560;2023-05-29T13:10:58;4.50;;;1.50;;
75990;SDS011;64673;52.276;10.560;2023-05-29T13:13:23;5.68;;;2.20;;
75990;SDS011;64673;52.276;10.560;2023-05-29T13:15:48;4.15;;;1.15;;
75990;SDS011;64673;52.276;10.560;2023-05-29T13:18:14;4.53;;;1.35;;
75990;SDS011;64673;52.276;10.560;2023-05-29T13:20:39;3.75;;;1.30;;
75990;SDS011;64673;52.276;10.560;2023-05-29T13:23:05;3.65;;;1.50;;
75990;SDS011;64673;52.276;10.560;2023-05-29T13:25:30;4.47;;;1.13;;
75990;SDS011;64673;52.276;10.560;2023-05-29T13:27:55;3.65;;;1.40;;
75990;SDS011;64673;52.276;10.560;2023-05-29T13:30:21;5.75;;;1.60;;
75990;SDS011;64673;52.276;10.560;2023-05-29T13:32:47;3.72;;;1.38;;
75990;SDS011;64673;52.276;10.560;2023-05-29T13:35:12;3.63;;;1.20;;
75990;SDS011;64673;52.276;10.560;2023-05-29T13:37:38;4.30;;;1.50;;
75990;SDS011;64673;52.276;10.560;2023-05-29T13:40:05;5.03;;;1.73;;
75990;SDS011;64673;52.276;10.560;2023-05-29T13:42:31;3.50;;;1.60;;
75990;SDS011;64673;52.276;10.560;2023-05-29T13:44:56;5.20;;;1.73;;
75990;SDS011;64673;52.276;10.560;2023-05-29T13:47:22;3.22;;;1.35;;
75990;SDS011;64673;52.276;10.560;2023-05-29T13:49:48;6.68;;;1.50;;
75990;SDS011;64673;52.276;10.560;2023-05-29T13:52:13;4.57;;;1.33;;
75990;SDS011;64673;52.276;10.560;2023-05-29T13:54:38;3.88;;;1.23;;
75990;SDS011;64673;52.276;10.560;2023-05-29T13:57:04;5.35;;;2.00;;
75990;SDS011;64673;52.276;10.560;2023-05-29T13:59:31;3.92;;;1.27;;
75990;SDS011;64673;52.276;10.560;2023-05-29T14:01:57;6.47;;;1.70;;
75990;SDS011;64673;52.276;10.560;2023-05-29T14:04:23;4.45;;;1.83;;
75990;SDS011;64673;52.276;10.560;2023-05-29T14:06:49;5.90;;;1.77;;
75990;SDS011;64673;52.276;10.560;2023-05-29T14:09:14;5.03;;;1.50;;
75990;SDS011;64673;52.276;10.560;2023-05-29T14:11:40;4.80;;;1.75;;
75990;SDS011;64673;52.276;10.560;2023-05-29T14:14:05;4.30;;;1.50;;
75990;SDS011;64673;52.276;10.560;2023-05-29T14:16:31;4.50;;;1.70;;
75990;SDS011;64673;52.276;10.560;2023-05-29T14:18:57;5.32;;;1.85;;
75990;SDS011;64673;52.276;10.560;2023-05-29T14:21:23;5.80;;;1.52;;
75990;SDS011;64673;52.276;10.560;2023-05-29T14:23:49;4.85;;;1.35;;
75990;SDS011;64673;52.276;10.560;2023-05-29T14:26:14;7.55;;;1.70;;
75990;SDS011;64673;52.276;10.560;2023-05-29T14:28:39;4.35;;;1.75;;
75990;SDS011;64673;52.276;10.560;2023-05-29T14:31:06;6.72;;;1.80;;
75990;SDS011;64673;52.276;10.560;2023-05-29T14:33:31;5.38;;;1.35;;
75990;SDS011;64673;52.276;10.560;2023-05-29T14:35:57;3.55;;;1.60;;
75990;SDS011;64673;52.276;10.560;2023-05-29T14:38:23;6.65;;;1.70;;
75990;SDS011;64673;52.276;10.560;2023-05-29T14:40:48;4.15;;;1.67;;
75990;SDS011;64673;52.276;10.560;2023-05-29T14:43:14;5.20;;;1.58;;
75990;SDS011;64673;52.276;10.560;2023-05-29T14:45:39;3.88;;;1.33;;
75990;SDS011;64673;52.276;10.560;2023-05-29T14:48:04;2.78;;;1.35;;
75990;SDS011;64673;52.276;10.560;2023-05-29T14:52:56;3.70;;;1.40;;
75990;SDS011;64673;52.276;10.560;2023-05-29T14:55:22;3.10;;;1.30;;
75990;SDS011;64673;52.276;10.560;2023-05-29T14:57:47;4.15;;;1.50;;
75990;SDS011;64673;52.276;10.560;2023-05-29T15:00:13;4.10;;;1.30;;
75990;SDS011;64673;52.276;10.560;2023-05-29T15:05:05;4.93;;;1.60;;
75990;SDS011;64673;52.276;10.560;2023-05-29T15:07:31;2.70;;;1.60;;
75990;SDS011;64673;52.276;10.560;2023-05-29T15:10:01;6.30;;;1.50;;
75990;SDS011;64673;52.276;10.560;2023-05-29T15:12:27;5.15;;;1.70;;
75990;SDS011;64673;52.276;10.560;2023-05-29T15:14:52;5.85;;;1.90;;
75990;SDS011;64673;52.276;10.560;2023-05-29T15:17:18;3.28;;;1.50;;
75990;SDS011;64673;52.276;10.560;2023-05-29T15:19:43;3.85;;;1.50;;
75990;SDS011;64673;52.276;10.560;2023-05-29T15:22:09;5.22;;;1.50;;
75990;SDS011;64673;52.276;10.560;2023-05-29T15:24:34;5.75;;;1.60;;